Time;durP1;ratioP1;P1;durP2;ratioP2;P2;SDS_P1;SDS_P2;PMS_P1;PMS_P2;Temp;Humidity;BMP_temperature;BMP_pressure;BME280_temperature;BME280_humidity;BME280_pressure;Samples;Min_cycle;Max_cycle;Signal;HPM_P1;HPM_P2
2022/12/22 03:25:54;;;;;;;1.30;1.02;;;;;;;5.75;100.00;95377.59;1038271;28;20749;-68
2022/12/22 03:26:25;;;;;;;1.50;1.00;;;;;;;5.76;100.00;95386.97;1033284;28;20348;-67
2022/12/22 03:26:56;;;;;;;1.23;1.13;;;;;;;5.72;100.00;95385.88;1034855;28;20304;-66
2022/12/22 03:27:26;;;;;;;2.08;0.95;;;;;;;5.77;100.00;95383.34;1037367;28;20279;-68
2022/12/22 03:28:04;;;;;;;1.92;1.10;;;;;;;5.81;100.00;95379.25;1036267;28;20025;-68
2022/12/22 03:28:34;;;;;;;0.90;0.85;;;;;;;5.81;100.00;95389.66;1030688;28;20034;-68
2022/12/22 03:29:08;;;;;;;1.83;1.20;;;;;;;5.82;100.00;95393.03;1026180;28;20270;-68
2022/12/22 03:29:38;;;;;;;2.30;1.33;;;;;;;5.85;100.00;95388.13;1025629;28;20615;-67
2022/12/22 03:30:09;;;;;;;1.65;1.23;;;;;;;5.83;100.00;95382.38;1027067;28;20262;-68
2022/12/22 03:30:39;;;;;;;1.38;1.10;;;;;;;5.78;100.00;95382.31;1034304;28;20022;-68
2022/12/22 03:31:10;;;;;;;1.45;1.15;;;;;;;5.79;100.00;95386.50;1029477;28;20532;-68
2022/12/22 03:31:40;;;;;;;3.50;1.30;;;;;;;5.78;100.00;95382.31;1026101;28;20031;-68
2022/12/22 03:32:11;;;;;;;1.17;1.08;;;;;;;5.74;100.00;95389.03;1018168;29;20023;-67
2022/12/22 03:32:41;;;;;;;1.17;1.10;;;;;;;5.75;100.00;95388.00;1022016;28;20540;-68
2022/12/22 03:33:12;;;;;;;1.45;1.10;;;;;;;5.75;100.00;95387.22;1022203;28;20023;-68
2022/12/22 03:33:42;;;;;;;4.60;1.10;;;;;;;5.70;100.00;95377.53;1026108;28;20027;-67
2022/12/22 03:34:13;;;;;;;1.88;1.38;;;;;;;5.70;100.00;95379.34;1032963;28;20085;-68
2022/12/22 03:34:43;;;;;;;4.13;1.20;;;;;;;5.77;100.00;95378.16;1034344;28;20404;-69
2022/12/22 03:35:13;;;;;;;3.65;1.30;;;;;;;5.72;100.00;95383.28;1029923;28;20018;-67
2022/12/22 03:35:44;;;;;;;1.10;1.00;;;;;;;5.69;100.00;95373.34;1029269;28;20025;-69
2022/12/22 03:36:14;;;;;;;1.33;1.20;;;;;;;5.79;100.00;95380.50;1029857;28;20061;-68
2022/12/22 03:36:45;;;;;;;0.98;0.80;;;;;;;5.79;100.00;95383.88;1037591;28;20116;-68
2022/12/22 03:37:15;;;;;;;2.20;1.30;;;;;;;5.79;100.00;95383.88;1038230;28;20471;-67
2022/12/22 03:37:46;;;;;;;1.45;1.10;;;;;;;5.78;100.00;95377.13;1034043;28;20123;-67
2022/12/22 03:38:16;;;;;;;5.32;1.35;;;;;;;5.74;100.00;95377.84;1034968;28;20056;-67
2022/12/22 03:38:49;;;;;;;1.30;1.00;;;;;;;5.75;100.00;95377.59;1034349;28;20021;-67
2022/12/22 03:39:20;;;;;;;1.42;1.23;;;;;;;5.70;100.00;95374.94;1030626;28;20125;-67
2022/12/22 03:39:50;;;;;;;0.90;0.90;;;;;;;5.66;100.00;95379.03;1038101;28;20271;-67
2022/12/22 03:40:21;;;;;;;4.32;1.33;;;;;;;5.73;100.00;95371.84;1038084;28;20088;-67
2022/12/22 03:40:51;;;;;;;1.80;1.40;;;;;;;5.81;100.00;95376.63;1038205;28;20022;-68
2022/12/22 03:46:47;;;;;;;2.53;1.40;;;;;;;5.68;100.00;95372.56;1034074;28;20261;-67
2022/12/22 03:47:17;;;;;;;2.15;1.40;;;;;;;5.59;100.00;95365.41;1033962;28;20025;-69
2022/12/22 03:47:47;;;;;;;3.67;1.63;;;;;;;5.66;100.00;95371.22;1032585;28;20038;-68
2022/12/22 03:48:18;;;;;;;2.00;1.50;;;;;;;5.67;100.00;95362.41;1030207;28;20602;-67
2022/12/22 03:49:38;;;;;;;2.53;1.70;;;;;;;5.64;100.00;95365.50;1036764;28;20129;-66
2022/12/22 03:50:08;;;;;;;2.22;1.38;;;;;;;5.63;100.00;95372.50;1040717;28;20256;-67
2022/12/22 03:50:39;;;;;;;1.88;1.40;;;;;;;5.67;100.00;95365.00;1037853;28;20147;-67
2022/12/22 03:51:09;;;;;;;2.50;1.80;;;;;;;5.70;100.00;95369.75;1038456;28;20026;-69
2022/12/22 03:51:43;;;;;;;2.47;1.52;;;;;;;5.75;100.00;95359.38;1034611;28;20072;-66
2022/12/22 03:52:14;;;;;;;2.58;2.00;;;;;;;5.64;100.00;95353.25;1035523;28;20042;-68
2022/12/22 03:52:44;;;;;;;2.45;1.73;;;;;;;5.69;100.00;95362.94;1029833;28;20297;-67
2022/12/22 03:53:15;;;;;;;1.85;1.55;;;;;;;5.73;100.00;95358.03;1026524;28;20033;-67
2022/12/22 03:53:45;;;;;;;4.07;1.65;;;;;;;5.73;100.00;95364.03;1028514;28;20026;-66
2022/12/22 03:54:21;;;;;;;4.03;1.45;;;;;;;5.71;100.00;95360.88;1029859;28;20022;-68
2022/12/22 03:54:51;;;;;;;3.65;1.63;;;;;;;5.69;100.00;95360.34;1033581;28;20794;-67
2022/12/22 03:55:21;;;;;;;3.15;2.03;;;;;;;5.72;100.00;95361.66;1033917;28;20276;-69
2022/12/22 03:55:52;;;;;;;1.92;1.40;;;;;;;5.72;100.00;95356.47;1033185;28;20026;-69
2022/12/22 03:56:22;;;;;;;2.15;1.67;;;;;;;5.81;100.00;95363.63;1030091;28;20034;-67
2022/12/22 03:56:53;;;;;;;3.33;1.70;;;;;;;5.77;100.00;95362.53;1029812;28;20694;-67
2022/12/22 03:57:23;;;;;;;2.22;1.50;;;;;;;5.81;100.00;95366.22;1029817;28;20085;-67
2022/12/22 03:57:54;;;;;;;2.20;1.85;;;;;;;5.75;100.00;95367.19;1034203;28;20029;-68
2022/12/22 03:58:24;;;;;;;2.83;1.70;;;;;;;5.74;100.00;95364.84;1037698;28;20018;-68
2022/12/22 03:58:55;;;;;;;2.55;1.98;;;;;;;5.78;100.00;95361.50;1033781;28;20791;-67
2022/12/22 03:59:25;;;;;;;2.58;1.80;;;;;;;5.75;100.00;95366.41;1033943;28;20036;-68
2022/12/22 03:59:56;;;;;;;4.15;1.73;;;;;;;5.64;100.00;95349.88;1034131;28;20030;-68
2022/12/22 04:00:26;;;;;;;2.88;2.00;;;;;;;5.74;100.00;95365.63;1033699;28;20034;-68
2022/12/22 04:01:06;;;;;;;1.92;1.60;;;;;;;5.74;100.00;95365.63;1033874;28;20464;-68
2022/12/22 04:01:49;;;;;;;2.53;2.08;;;;;;;5.80;100.00;95363.84;1033620;28;20060;-68
2022/12/22 04:02:19;;;;;;;3.15;2.00;;;;;;;5.75;100.00;95367.19;1025755;28;20262;-68
2022/12/22 04:02:49;;;;;;;3.22;1.88;;;;;;;5.83;100.00;95373.78;1026050;28;20309;-69
2022/12/22 04:03:20;;;;;;;2.35;1.38;;;;;;;5.80;100.00;95366.44;1029259;28;20027;-69
2022/12/22 04:03:50;;;;;;;3.03;1.70;;;;;;;5.77;100.00;95359.13;1034196;28;20026;-67
2022/12/22 04:04:22;;;;;;;3.45;1.83;;;;;;;5.86;100.00;95371.47;1038012;28;20553;-68
2022/12/22 04:04:53;;;;;;;3.08;1.75;;;;;;;5.86;100.00;95375.91;1030067;28;20440;-67
2022/12/22 04:05:24;;;;;;;5.35;1.77;;;;;;;5.78;100.00;95364.09;1025637;28;20306;-67
2022/12/22 04:05:54;;;;;;;2.00;1.80;;;;;;;5.85;100.00;95369.13;1021512;28;20027;-68
2022/12/22 04:06:25;;;;;;;2.72;1.67;;;;;;;5.94;100.00;95377.34;1026191;28;20265;-68
2022/12/22 04:06:55;;;;;;;1.85;1.65;;;;;;;5.91;100.00;95376.75;1033876;28;20033;-68
2022/12/22 04:07:26;;;;;;;2.83;1.77;;;;;;;5.88;100.00;95371.25;1033876;28;20063;-67
2022/12/22 04:07:56;;;;;;;5.15;2.08;;;;;;;5.84;100.00;95363.13;1030094;28;20022;-70
2022/12/22 04:08:27;;;;;;;5.05;2.03;;;;;;;5.85;100.00;95366.53;1033968;28;20532;-67
2022/12/22 04:08:57;;;;;;;1.88;1.73;;;;;;;5.82;100.00;95367.00;1038257;28;20036;-69
2022/12/22 04:09:28;;;;;;;2.28;2.00;;;;;;;5.76;100.00;95358.34;1037875;28;20033;-68
2022/12/22 04:13:15;;;;;;;2.55;1.90;;;;;;;6.05;100.00;95368.63;1032220;28;20279;-68
2022/12/22 04:13:45;;;;;;;3.53;1.95;;;;;;;6.05;100.00;95366.03;1031360;28;20284;-67
2022/12/22 04:14:16;;;;;;;2.50;1.70;;;;;;;6.02;100.00;95374.31;1029754;28;20035;-68
2022/12/22 04:14:46;;;;;;;3.33;1.70;;;;;;;5.95;100.00;95365.91;1030765;28;20396;-68
2022/12/22 04:15:17;;;;;;;3.13;1.90;;;;;;;5.97;100.00;95375.06;1030866;28;20041;-68
2022/12/22 04:15:47;;;;;;;5.22;1.75;;;;;;;5.98;100.00;95373.22;1025313;28;20478;-67
2022/12/22 04:16:17;;;;;;;3.67;2.13;;;;;;;5.97;100.00;95369.84;1030667;28;20073;-70
2022/12/22 04:16:48;;;;;;;3.35;2.20;;;;;;;5.99;100.00;95372.19;1027127;28;20031;-67
2022/12/22 04:17:18;;;;;;;2.50;1.67;;;;;;;6.00;100.00;95360.75;1026277;28;20035;-66
2022/12/22 04:17:49;;;;;;;2.00;1.75;;;;;;;6.00;100.00;95371.16;1029238;28;20506;-68
2022/12/22 04:18:19;;;;;;;2.17;1.90;;;;;;;6.00;100.00;95371.16;1030838;28;20030;-68
2022/12/22 04:18:50;;;;;;;1.70;1.60;;;;;;;5.96;100.00;95377.88;1030865;28;20081;-68
2022/12/22 04:19:20;;;;;;;3.85;1.92;;;;;;;6.03;100.00;95381.09;1028081;28;20492;-67
2022/12/22 04:19:51;;;;;;;2.47;1.73;;;;;;;6.00;100.00;95365.94;1026833;28;20038;-67
2022/12/22 04:20:22;;;;;;;2.63;2.08;;;;;;;6.05;100.00;95379.81;1034668;28;20060;-68
2022/12/22 04:20:52;;;;;;;4.82;2.45;;;;;;;6.03;100.00;95378.47;1030920;28;20844;-68
2022/12/22 04:21:23;;;;;;;1.98;1.63;;;;;;;6.01;100.00;95373.53;1030611;28;20296;-68
2022/12/22 04:21:53;;;;;;;3.58;2.38;;;;;;;6.03;100.00;95378.47;1025766;28;20555;-68
2022/12/22 04:22:24;;;;;;;2.00;1.80;;;;;;;5.99;100.00;95361.78;1026779;28;20030;-68
2022/12/22 04:22:55;;;;;;;2.13;1.80;;;;;;;5.96;100.00;95368.25;1027638;28;20034;-67
2022/12/22 04:23:25;;;;;;;2.45;2.00;;;;;;;6.01;100.00;95370.16;1022746;28;20031;-67
2022/12/22 04:23:56;;;;;;;3.97;2.28;;;;;;;6.17;100.00;95358.88;1022622;29;20038;-68
2022/12/22 04:24:26;;;;;;;2.53;1.95;;;;;;;6.20;100.00;95378.41;1026637;28;20042;-68
2022/12/22 04:24:56;;;;;;;2.95;2.13;;;;;;;6.22;100.00;95377.16;1026846;28;20050;-68
2022/12/22 04:25:28;;;;;;;3.97;2.10;;;;;;;6.26;100.00;95367.81;1026440;28;20041;-68
2022/12/22 04:25:58;;;;;;;5.00;2.25;;;;;;;6.19;100.00;95369.81;1030129;28;20035;-67
2022/12/22 04:26:29;;;;;;;2.78;1.95;;;;;;;6.12;100.00;95366.63;1031449;28;20737;-68
2022/12/22 04:26:59;;;;;;;3.25;2.10;;;;;;;6.20;100.00;95366.19;1034688;28;20036;-67
2022/12/22 04:27:30;;;;;;;4.03;1.90;;;;;;;6.24;100.00;95359.47;1028147;28;20035;-68
2022/12/22 04:28:00;;;;;;;2.33;1.70;;;;;;;6.25;100.00;95371.47;1024075;28;20436;-67
2022/12/22 04:28:31;;;;;;;2.25;1.60;;;;;;;6.33;100.00;95371.00;1022483;28;20102;-68
2022/12/22 04:29:01;;;;;;;3.85;2.08;;;;;;;6.35;100.00;95366.34;1023075;28;20513;-69
2022/12/22 04:29:32;;;;;;;5.65;2.00;;;;;;;6.33;100.00;95365.03;1030740;28;20026;-68
2022/12/22 04:30:04;;;;;;;2.65;1.85;;;;;;;6.26;100.00;95360.00;1026588;28;20027;-68
2022/12/22 04:30:34;;;;;;;2.63;2.08;;;;;;;6.22;100.00;95366.72;1026750;28;20106;-68
2022/12/22 04:31:04;;;;;;;4.22;2.00;;;;;;;6.18;100.00;95375.28;1026802;28;20763;-68
2022/12/22 04:31:35;;;;;;;3.67;1.90;;;;;;;6.18;100.00;95370.06;1026708;28;20027;-69
2022/12/22 04:32:05;;;;;;;2.80;1.90;;;;;;;6.16;100.00;95365.09;1028773;28;20050;-69
2022/12/22 04:32:36;;;;;;;5.68;2.00;;;;;;;6.13;100.00;95373.41;1033993;28;20038;-68
2022/12/22 04:33:06;;;;;;;4.15;2.83;;;;;;;6.12;100.00;95369.22;1034823;28;20120;-69
2022/12/22 04:33:37;;;;;;;5.25;2.13;;;;;;;6.13;100.00;95368.19;1038791;28;20044;-68
2022/12/22 04:34:07;;;;;;;2.30;1.63;;;;;;;6.14;100.00;95369.78;1038913;28;20017;-69
2022/12/22 04:34:38;;;;;;;3.22;2.22;;;;;;;6.09;100.00;95362.69;1038342;28;20077;-67
2022/12/22 04:35:09;;;;;;;3.33;1.80;;;;;;;6.13;100.00;95357.75;1033125;28;20093;-68
2022/12/22 04:35:39;;;;;;;3.17;1.70;;;;;;;6.16;100.00;95357.28;1029849;28;20045;-69
2022/12/22 04:36:09;;;;;;;4.25;1.85;;;;;;;6.23;100.00;95349.28;1034891;28;20034;-69
2022/12/22 04:36:40;;;;;;;2.75;1.98;;;;;;;6.30;100.00;95360.28;1030294;28;20022;-68
2022/12/22 04:37:10;;;;;;;3.35;1.75;;;;;;;6.31;100.00;95360.06;1030786;28;20660;-69
2022/12/22 04:37:41;;;;;;;4.25;2.05;;;;;;;6.24;100.00;95356.88;1030697;28;20034;-69
2022/12/22 04:38:11;;;;;;;5.65;2.10;;;;;;;6.21;100.00;95340.94;1026663;28;20104;-68
2022/12/22 04:38:42;;;;;;;3.20;2.17;;;;;;;6.32;100.00;95351.22;1030699;28;20026;-69
2022/12/22 04:39:12;;;;;;;4.53;2.05;;;;;;;6.27;100.00;95332.94;1030934;28;20550;-68
2022/12/22 04:39:43;;;;;;;4.07;2.35;;;;;;;6.32;100.00;95345.22;1030609;28;20408;-68
2022/12/22 04:40:13;;;;;;;2.58;1.70;;;;;;;6.30;100.00;95342.84;1027028;28;20106;-69
2022/12/22 04:40:44;;;;;;;3.65;1.92;;;;;;;6.32;100.00;95347.81;1028403;28;20047;-68
2022/12/22 04:41:14;;;;;;;3.20;2.22;;;;;;;6.35;100.00;95342.91;1030692;28;20030;-68
2022/12/22 04:41:45;;;;;;;3.17;2.30;;;;;;;6.45;100.00;95346.66;1030850;28;20030;-68
2022/12/22 04:42:15;;;;;;;2.70;1.70;;;;;;;6.42;100.00;95341.94;1030574;28;20034;-68
2022/12/22 04:42:45;;;;;;;2.85;1.60;;;;;;;6.38;100.00;95345.03;1026690;28;20031;-69
2022/12/22 04:43:16;;;;;;;3.78;1.85;;;;;;;6.40;100.00;95330.94;1034534;28;20014;-68
2022/12/22 04:43:46;;;;;;;2.70;2.08;;;;;;;6.38;100.00;95339.81;1034702;28;20029;-69
2022/12/22 04:44:17;;;;;;;5.45;2.13;;;;;;;6.35;100.00;95339.50;1034384;28;20031;-69
2022/12/22 04:44:48;;;;;;;2.22;1.67;;;;;;;6.30;100.00;95348.03;1032923;28;20041;-70
2022/12/22 04:45:18;;;;;;;2.17;1.63;;;;;;;6.37;100.00;95340.84;1026445;28;20026;-69
2022/12/22 04:45:52;;;;;;;3.50;1.75;;;;;;;6.38;100.00;95345.03;1026414;28;20035;-68
2022/12/22 04:46:23;;;;;;;2.17;1.70;;;;;;;6.36;100.00;95339.25;1022680;29;20034;-68
2022/12/22 04:46:53;;;;;;;2.88;1.67;;;;;;;6.32;100.00;95340.78;1023138;28;20652;-68
2022/12/22 04:47:24;;;;;;;2.38;1.58;;;;;;;6.29;100.00;95341.28;1026199;28;20038;-69
2022/12/22 04:47:54;;;;;;;2.33;1.80;;;;;;;6.27;100.00;95330.31;1026820;28;20030;-69
2022/12/22 04:48:25;;;;;;;2.90;1.90;;;;;;;6.33;100.00;95338.97;1036671;28;20538;-68
2022/12/22 04:48:55;;;;;;;4.22;1.60;;;;;;;6.27;100.00;95335.53;1038683;28;20018;-69
2022/12/22 04:49:26;;;;;;;4.10;1.85;;;;;;;6.24;100.00;95337.84;1040896;28;20029;-69
2022/12/22 04:49:56;;;;;;;2.47;1.88;;;;;;;6.27;100.00;95338.16;1034900;28;20041;-68
2022/12/22 04:50:27;;;;;;;2.33;1.60;;;;;;;6.35;100.00;95335.09;1034675;28;20022;-69
2022/12/22 04:50:58;;;;;;;2.42;1.70;;;;;;;6.33;100.00;95328.53;1030808;28;20439;-68
2022/12/22 04:51:28;;;;;;;2.40;1.92;;;;;;;6.36;100.00;95328.06;1030870;28;20029;-68
2022/12/22 04:51:59;;;;;;;2.33;1.75;;;;;;;6.43;100.00;95328.63;1030431;28;20796;-68
2022/12/22 04:52:29;;;;;;;4.70;2.00;;;;;;;6.56;100.00;95330.84;1022782;29;20023;-68
2022/12/22 04:53:00;;;;;;;3.45;2.10;;;;;;;6.53;100.00;95330.56;1026217;28;20026;-69
2022/12/22 04:53:30;;;;;;;5.78;1.80;;;;;;;6.44;100.00;95321.59;1026679;28;20405;-70
2022/12/22 04:54:01;;;;;;;3.35;2.00;;;;;;;6.46;100.00;95315.13;1023704;28;20015;-70
2022/12/22 04:54:31;;;;;;;2.05;1.67;;;;;;;6.47;100.00;95321.94;1030375;28;20033;-69
2022/12/22 04:55:02;;;;;;;4.68;1.80;;;;;;;6.40;100.00;95325.75;1030694;28;20029;-68
2022/12/22 04:55:32;;;;;;;3.03;1.80;;;;;;;6.33;100.00;95315.50;1023521;28;20891;-70
2022/12/22 04:56:05;;;;;;;1.80;1.63;;;;;;;6.29;100.00;95320.44;1022380;28;20019;-68
2022/12/22 04:56:35;;;;;;;2.28;1.90;;;;;;;6.29;100.00;95322.25;1022761;28;20466;-69
2022/12/22 04:57:06;;;;;;;2.33;1.90;;;;;;;6.34;100.00;95317.09;1033624;28;20257;-68
2022/12/22 04:57:36;;;;;;;3.00;2.00;;;;;;;6.37;100.00;95320.00;1034315;28;20653;-69
2022/12/22 04:58:07;;;;;;;3.55;1.95;;;;;;;6.40;100.00;95320.53;1030742;28;20019;-68
2022/12/22 04:58:37;;;;;;;3.05;1.90;;;;;;;6.53;100.00;95322.75;1031058;28;20018;-70
2022/12/22 04:59:07;;;;;;;3.75;1.83;;;;;;;6.52;100.00;95324.56;1026742;28;20416;-69
2022/12/22 04:59:38;;;;;;;5.43;2.10;;;;;;;6.48;100.00;95328.69;1029970;28;20026;-69
2022/12/22 05:00:09;;;;;;;2.83;1.58;;;;;;;6.43;100.00;95330.47;1030344;28;20025;-68
2022/12/22 05:00:39;;;;;;;1.90;1.63;;;;;;;6.42;100.00;95323.69;1022770;28;20102;-68
2022/12/22 05:01:11;;;;;;;2.53;1.67;;;;;;;6.38;100.00;95323.38;1030467;28;20049;-69
2022/12/22 05:01:42;;;;;;;1.80;1.40;;;;;;;6.38;100.00;95318.19;1026772;28;20023;-69
2022/12/22 05:02:12;;;;;;;1.58;1.48;;;;;;;6.46;100.00;95325.53;1026979;28;20319;-69
2022/12/22 05:02:43;;;;;;;2.65;2.10;;;;;;;6.37;100.00;95322.59;1030410;28;20026;-69
2022/12/22 05:03:13;;;;;;;2.30;1.73;;;;;;;6.47;100.00;95318.50;1031104;28;20452;-71
2022/12/22 05:03:44;;;;;;;2.53;1.88;;;;;;;6.48;100.00;95327.91;1032137;28;20030;-69
2022/12/22 05:04:14;;;;;;;2.80;2.22;;;;;;;6.42;100.00;95323.69;1033765;28;20053;-69
2022/12/22 05:04:45;;;;;;;2.25;1.88;;;;;;;6.36;100.00;95326.22;1034633;28;20022;-69
2022/12/22 05:05:15;;;;;;;2.17;1.65;;;;;;;6.33;100.00;95324.09;1034114;28;20018;-69
2022/12/22 05:05:46;;;;;;;3.33;1.90;;;;;;;6.37;100.00;95322.59;1033765;28;20483;-68
2022/12/22 05:06:16;;;;;;;1.58;1.48;;;;;;;6.44;100.00;95326.81;1039070;28;20772;-70
2022/12/22 05:06:47;;;;;;;5.20;1.70;;;;;;;6.45;100.00;95325.81;1034020;28;20022;-69
2022/12/22 05:07:17;;;;;;;2.03;1.60;;;;;;;6.41;100.00;95322.13;1031377;28;20078;-70
2022/12/22 05:07:48;;;;;;;3.15;1.55;;;;;;;6.44;100.00;95326.81;1032510;28;20589;-69
2022/12/22 05:08:18;;;;;;;2.90;1.40;;;;;;;6.34;100.00;95323.09;1030322;28;20018;-68
2022/12/22 05:08:48;;;;;;;1.90;1.63;;;;;;;6.25;100.00;95321.19;1034762;28;20037;-69
2022/12/22 05:09:19;;;;;;;2.03;1.48;;;;;;;6.14;100.00;95302.06;1034509;28;20017;-70
2022/12/22 05:09:49;;;;;;;4.35;1.50;;;;;;;6.27;100.00;95327.72;1032918;28;20022;-69
2022/12/22 05:10:20;;;;;;;2.92;1.40;;;;;;;6.21;100.00;95327.91;1034499;28;20391;-69
2022/12/22 05:10:50;;;;;;;1.90;1.45;;;;;;;6.14;100.00;95317.69;1034805;28;20045;-70
2022/12/22 05:11:21;;;;;;;4.20;1.73;;;;;;;6.17;100.00;95317.19;1034969;28;20028;-70
2022/12/22 05:11:51;;;;;;;2.70;1.85;;;;;;;6.14;100.00;95322.88;1034530;28;20033;-70
2022/12/22 05:13:07;;;;;;;3.22;1.60;;;;;;;6.14;100.00;95322.88;1030550;28;20029;-67
2022/12/22 05:13:12;;;;;;;2.42;1.80;;;;;;;6.21;100.00;95310.47;1022759;28;20028;-69
2022/12/22 05:13:43;;;;;;;1.90;1.70;;;;;;;6.28;100.00;95300.63;1024061;28;20051;-68
2022/12/22 05:14:13;;;;;;;2.90;1.63;;;;;;;6.30;100.00;95316.78;1023416;28;20023;-69
2022/12/22 05:14:44;;;;;;;2.53;1.58;;;;;;;6.25;100.00;95305.53;1022599;28;20078;-69
2022/12/22 05:15:14;;;;;;;2.13;1.30;;;;;;;6.27;100.00;95309.47;1026642;28;20019;-69
2022/12/22 05:15:45;;;;;;;1.63;1.45;;;;;;;6.20;100.00;95314.06;1029132;28;20076;-69
2022/12/22 05:16:15;;;;;;;2.97;1.67;;;;;;;6.20;100.00;95306.25;1038525;28;20028;-69
2022/12/22 05:16:46;;;;;;;2.25;1.60;;;;;;;6.26;100.00;95305.28;1030385;28;20069;-69
2022/12/22 05:17:16;;;;;;;2.25;1.70;;;;;;;6.26;100.00;95304.50;1026615;28;20022;-69
2022/12/22 05:17:47;;;;;;;2.65;1.42;;;;;;;6.31;100.00;95307.16;1026433;28;20026;-69
2022/12/22 05:18:17;;;;;;;1.45;1.30;;;;;;;6.26;100.00;95304.50;1034403;28;20030;-69
2022/12/22 05:18:48;;;;;;;1.98;1.30;;;;;;;6.41;100.00;95306.50;1028779;28;20026;-69
2022/12/22 05:19:18;;;;;;;2.30;1.50;;;;;;;6.51;100.00;95306.56;1030426;28;20399;-69
2022/12/22 05:19:49;;;;;;;1.50;1.15;;;;;;;6.46;100.00;95303.91;1034876;28;20037;-69
2022/12/22 05:20:19;;;;;;;1.30;1.20;;;;;;;6.41;100.00;95311.69;1038348;28;20120;-69
2022/12/22 05:20:50;;;;;;;2.10;1.60;;;;;;;6.46;100.00;95304.69;1038685;28;20148;-68
2022/12/22 05:21:21;;;;;;;3.78;1.15;;;;;;;6.52;100.00;95298.50;1038365;28;20495;-69
2022/12/22 05:21:51;;;;;;;2.28;1.05;;;;;;;6.55;100.00;95297.22;1032909;28;20756;-68
2022/12/22 05:22:22;;;;;;;1.25;1.05;;;;;;;6.48;100.00;95296.66;1034056;28;20305;-69
2022/12/22 05:22:52;;;;;;;2.72;1.80;;;;;;;6.51;100.00;95298.75;1034373;28;20022;-68
2022/12/22 05:23:23;;;;;;;3.15;1.30;;;;;;;6.50;100.00;95300.56;1031521;28;20079;-70
2022/12/22 05:23:53;;;;;;;3.05;1.50;;;;;;;6.52;100.00;95289.91;1025994;28;20019;-70
2022/12/22 05:24:23;;;;;;;1.77;1.48;;;;;;;6.52;100.00;95308.16;1026106;28;20030;-71
2022/12/22 05:24:54;;;;;;;1.27;1.13;;;;;;;6.50;100.00;95290.13;1026475;28;20023;-69
2022/12/22 05:25:25;;;;;;;2.33;1.50;;;;;;;6.49;100.00;95308.63;1028411;28;20170;-69
2022/12/22 05:25:55;;;;;;;2.53;1.25;;;;;;;6.40;100.00;95302.28;1029635;28;20637;-69
2022/12/22 05:26:25;;;;;;;1.63;1.30;;;;;;;6.37;100.00;95296.56;1026300;28;20031;-69
2022/12/22 05:26:56;;;;;;;1.35;1.10;;;;;;;6.42;100.00;95297.63;1022149;28;20015;-69
2022/12/22 05:27:26;;;;;;;2.72;1.40;;;;;;;6.47;100.00;95306.28;1027501;28;20022;-69
2022/12/22 05:27:57;;;;;;;2.50;1.35;;;;;;;6.47;100.00;95300.25;1026298;28;20011;-71
2022/12/22 05:28:27;;;;;;;2.53;1.10;;;;;;;6.44;100.00;95292.94;1028774;28;20158;-68
2022/12/22 05:28:58;;;;;;;1.35;0.90;;;;;;;6.42;100.00;95302.84;1021717;29;20030;-69
2022/12/22 05:29:28;;;;;;;3.22;1.30;;;;;;;6.43;100.00;95301.78;1027505;28;20114;-69
2022/12/22 05:29:59;;;;;;;2.45;1.08;;;;;;;6.49;100.00;95299.00;1029390;28;20137;-70
2022/12/22 05:30:29;;;;;;;1.75;1.15;;;;;;;6.39;100.00;95304.09;1028481;28;20086;-69
2022/12/22 05:31:04;;;;;;;1.88;0.88;;;;;;;6.38;100.00;95303.31;1028996;28;20019;-69
2022/12/22 05:31:35;;;;;;;2.13;1.42;;;;;;;6.29;100.00;95302.19;1030042;28;20019;-69
2022/12/22 05:32:05;;;;;;;1.25;0.90;;;;;;;6.30;100.00;95295.94;1022543;29;20279;-70
2022/12/22 05:32:35;;;;;;;1.45;1.02;;;;;;;6.30;100.00;95298.53;1022772;28;20023;-69
2022/12/22 05:33:06;;;;;;;3.38;1.00;;;;;;;6.28;100.00;95300.63;1026248;28;20019;-68
2022/12/22 05:33:36;;;;;;;0.77;0.77;;;;;;;6.26;100.00;95300.06;1027201;28;20015;-69
2022/12/22 05:34:07;;;;;;;3.25;1.05;;;;;;;6.16;100.00;95293.97;1034463;28;20084;-68
2022/12/22 05:34:37;;;;;;;1.70;1.00;;;;;;;6.33;100.00;95299.88;1026208;28;20048;-69
2022/12/22 05:35:08;;;;;;;1.02;0.93;;;;;;;6.27;100.00;95296.47;1029581;28;20077;-70
2022/12/22 05:35:38;;;;;;;2.03;0.85;;;;;;;6.23;100.00;95292.75;1033710;28;20018;-70
2022/12/22 05:36:09;;;;;;;1.15;1.05;;;;;;;6.18;100.00;95287.50;1034857;28;20022;-69
2022/12/22 05:36:39;;;;;;;1.23;1.10;;;;;;;6.31;100.00;95281.13;1034290;28;20029;-69
2022/12/22 05:37:10;;;;;;;2.22;1.17;;;;;;;6.27;100.00;95275.63;1029847;28;20061;-69
2022/12/22 05:37:40;;;;;;;1.17;0.90;;;;;;;6.26;100.00;95289.66;1018579;29;20054;-70
2022/12/22 05:38:11;;;;;;;2.10;1.13;;;;;;;6.19;100.00;95285.69;1019354;29;20028;-69
2022/12/22 05:38:43;;;;;;;1.63;1.02;;;;;;;6.11;100.00;95284.31;1024516;28;20019;-70
2022/12/22 05:39:13;;;;;;;1.70;0.98;;;;;;;6.11;100.00;95294.72;1027250;28;20058;-70
2022/12/22 05:39:44;;;;;;;0.95;0.80;;;;;;;6.20;100.00;95297.66;1032012;28;20626;-69
2022/12/22 05:40:14;;;;;;;1.95;1.00;;;;;;;6.21;100.00;95297.44;1019898;29;20028;-69
2022/12/22 05:40:45;;;;;;;1.75;0.98;;;;;;;6.23;100.00;95303.16;1022055;29;20086;-69
2022/12/22 05:41:15;;;;;;;1.40;0.85;;;;;;;6.31;100.00;95300.13;1021675;28;20496;-69
2022/12/22 05:41:46;;;;;;;1.42;1.08;;;;;;;6.43;100.00;95299.19;1031444;28;20017;-70
2022/12/22 05:42:34;;;;;;;2.60;0.80;;;;;;;6.37;100.00;95301.75;1037966;28;20378;-69
2022/12/22 05:43:05;;;;;;;1.05;0.77;;;;;;;6.26;100.00;95307.88;1036387;28;20029;-69
2022/12/22 05:43:35;;;;;;;1.27;1.10;;;;;;;6.18;100.00;95295.31;1032461;28;20308;-69
2022/12/22 05:44:06;;;;;;;1.55;1.38;;;;;;;6.27;100.00;95291.25;1036575;28;20030;-72
2022/12/22 05:44:36;;;;;;;3.03;1.02;;;;;;;6.28;100.00;95303.22;1022099;29;20019;-69
2022/12/22 05:45:13;;;;;;;1.15;0.80;;;;;;;6.29;100.00;95299.59;1030042;28;20631;-69
2022/12/22 05:45:44;;;;;;;3.63;0.82;;;;;;;6.30;100.00;95306.34;1037892;28;20075;-69
2022/12/22 05:46:15;;;;;;;1.17;0.95;;;;;;;6.24;100.00;95302.16;1025256;28;20321;-70
2022/12/22 05:46:45;;;;;;;1.77;1.00;;;;;;;6.27;100.00;95301.66;1026192;28;20745;-68
2022/12/22 05:47:16;;;;;;;1.30;0.80;;;;;;;6.20;100.00;95295.06;1026233;28;20018;-70
2022/12/22 05:47:48;;;;;;;1.38;1.00;;;;;;;6.33;100.00;95297.28;1026571;28;20023;-70
2022/12/22 05:48:18;;;;;;;0.95;0.80;;;;;;;6.41;100.00;95298.66;1038496;28;20767;-68
2022/12/22 05:48:49;;;;;;;1.08;0.73;;;;;;;6.41;100.00;95298.66;1034458;28;20316;-69
2022/12/22 05:49:19;;;;;;;1.95;1.20;;;;;;;6.36;100.00;95300.16;1030075;28;20027;-69
2022/12/22 05:49:50;;;;;;;4.10;1.20;;;;;;;6.37;100.00;95304.38;1026582;28;20085;-71
2022/12/22 05:50:22;;;;;;;1.38;0.80;;;;;;;6.32;100.00;95291.28;1030325;28;20018;-69
2022/12/22 05:50:53;;;;;;;2.80;1.10;;;;;;;6.31;100.00;95294.94;1034580;28;20480;-68
2022/12/22 05:51:23;;;;;;;1.42;0.90;;;;;;;6.38;100.00;95300.72;1038590;28;20252;-69
2022/12/22 05:51:54;;;;;;;1.13;0.90;;;;;;;6.35;100.00;95296.00;1038450;28;20020;-69
2022/12/22 05:52:25;;;;;;;1.52;1.00;;;;;;;6.29;100.00;95299.59;1038721;28;20406;-69
2022/12/22 05:52:55;;;;;;;1.88;0.90;;;;;;;6.27;100.00;95291.25;1030473;28;20305;-69
2022/12/22 05:53:26;;;;;;;1.55;1.00;;;;;;;6.38;100.00;95295.50;1034339;28;20022;-71
2022/12/22 05:53:56;;;;;;;2.17;1.00;;;;;;;6.44;100.00;95296.34;1030402;28;20022;-69
2022/12/22 05:54:27;;;;;;;1.45;0.80;;;;;;;6.42;100.00;95289.81;1034236;28;20141;-69
2022/12/22 05:54:57;;;;;;;1.00;0.85;;;;;;;6.43;100.00;95305.19;1030131;28;20018;-69
2022/12/22 05:55:28;;;;;;;1.23;1.00;;;;;;;6.42;100.00;95289.81;1029942;28;20030;-68
2022/12/22 05:55:58;;;;;;;1.33;0.82;;;;;;;6.41;100.00;95301.28;1021448;28;20496;-71
2022/12/22 05:56:29;;;;;;;2.55;0.90;;;;;;;6.59;100.00;95286.03;1026630;28;20027;-69
2022/12/22 05:56:59;;;;;;;1.02;0.90;;;;;;;6.54;100.00;95295.66;1030163;28;20022;-69
2022/12/22 05:57:29;;;;;;;1.73;0.80;;;;;;;6.52;100.00;95292.50;1036900;28;20025;-69
2022/12/22 05:58:00;;;;;;;1.00;0.90;;;;;;;6.57;100.00;95285.53;1034271;28;20019;-71
2022/12/22 05:58:31;;;;;;;1.38;0.80;;;;;;;6.56;100.00;95289.16;1030361;28;20023;-68
2022/12/22 05:59:02;;;;;;;3.13;0.80;;;;;;;6.49;100.00;95280.75;1024853;28;20709;-69
2022/12/22 05:59:33;;;;;;;1.88;1.08;;;;;;;6.50;100.00;95282.31;1021826;28;20337;-70
2022/12/22 06:00:04;;;;;;;1.85;0.85;;;;;;;6.50;100.00;95290.13;1026094;28;20023;-70
2022/12/22 06:00:35;;;;;;;2.33;1.00;;;;;;;6.48;100.00;95283.63;1025116;28;20086;-70